Time;durP1;ratioP1;P1;durP2;ratioP2;P2;SDS_P1;SDS_P2;PMS_P1;PMS_P2;Temp;Humidity;BMP_temperature;BMP_pressure;BME280_temperature;BME280_humidity;BME280_pressure;Samples;Min_cycle;Max_cycle;Signal;HPM_P1;HPM_P2
2022/04/15 00:01:38;;;;;;;9.57;6.22;;;;;;;12.16;58.00;100596.75;5090101;28;20105;-60
2022/04/15 00:04:05;;;;;;;13.32;6.70;;;;;;;12.12;58.12;100601.34;5090310;28;20040;-59
2022/04/15 00:06:33;;;;;;;7.72;6.13;;;;;;;12.08;58.33;100595.34;5089171;28;20101;-60
2022/04/15 00:08:59;;;;;;;8.45;6.47;;;;;;;12.07;58.57;100598.09;5090399;28;20044;-61
2022/04/15 00:11:28;;;;;;;9.15;6.47;;;;;;;12.06;58.63;100601.63;5090063;28;20071;-61
2022/04/15 00:13:55;;;;;;;8.80;6.60;;;;;;;12.04;58.86;100596.41;5090226;28;20117;-60
2022/04/15 00:16:21;;;;;;;14.07;6.57;;;;;;;12.04;58.88;100608.75;5090185;28;20044;-60
2022/04/15 00:18:48;;;;;;;8.02;6.70;;;;;;;12.05;58.99;100608.72;5090184;28;20539;-62
2022/04/15 00:21:15;;;;;;;10.35;6.45;;;;;;;12.06;59.16;100610.41;5089900;28;20090;-60
2022/04/15 00:23:41;;;;;;;9.70;5.70;;;;;;;12.07;59.29;100619.22;5089091;28;20051;-60
2022/04/15 00:26:08;;;;;;;9.45;5.57;;;;;;;12.09;59.29;100607.63;5090168;28;20093;-59
2022/04/15 00:28:34;;;;;;;9.65;5.68;;;;;;;12.12;59.21;100610.09;5090041;28;20407;-62
2022/04/15 00:31:01;;;;;;;6.35;5.13;;;;;;;12.15;59.24;100605.63;5089809;28;20290;-60
2022/04/15 00:33:28;;;;;;;9.68;5.28;;;;;;;12.18;59.27;100608.13;5090298;28;20571;-60
2022/04/15 00:35:54;;;;;;;7.93;5.20;;;;;;;12.18;59.38;100606.31;5090219;28;20112;-60
2022/04/15 00:38:21;;;;;;;7.93;5.15;;;;;;;12.21;59.52;100610.56;5090118;28;20109;-61
2022/04/15 00:40:47;;;;;;;6.38;4.80;;;;;;;12.21;59.35;100611.44;5089764;28;20125;-60
2022/04/15 00:43:14;;;;;;;7.57;4.50;;;;;;;12.23;59.43;100601.66;5091730;28;20459;-59
2022/04/15 00:45:45;;;;;;;6.55;4.90;;;;;;;12.24;59.22;100608.66;5094193;28;20057;-61
2022/04/15 00:48:14;;;;;;;7.50;4.55;;;;;;;12.24;59.30;100607.78;5094109;28;20076;-59
2022/04/15 00:50:41;;;;;;;7.78;4.80;;;;;;;12.26;59.12;100605.91;5093628;28;20044;-60
2022/04/15 00:53:10;;;;;;;9.88;4.78;;;;;;;12.25;59.15;100601.56;5092629;28;20043;-60
2022/04/15 00:55:38;;;;;;;8.98;5.00;;;;;;;12.25;58.99;100609.50;5092159;28;20052;-62
2022/04/15 00:58:07;;;;;;;7.90;4.88;;;;;;;12.23;59.04;100606.94;5092550;28;20093;-61
2022/04/15 01:00:36;;;;;;;9.15;4.60;;;;;;;12.22;59.18;100607.00;5092109;28;20052;-61
2022/04/15 01:03:04;;;;;;;8.23;4.53;;;;;;;12.21;59.20;100607.94;5092423;28;20051;-60
2022/04/15 01:05:32;;;;;;;10.85;4.53;;;;;;;12.21;59.08;100611.44;5092180;28;20055;-60
2022/04/15 01:08:02;;;;;;;6.97;4.30;;;;;;;12.20;59.21;100604.47;5093530;28;20804;-60
2022/04/15 01:10:33;;;;;;;7.38;4.47;;;;;;;12.20;59.42;100606.25;5091979;28;20103;-59
2022/04/15 01:13:05;;;;;;;6.60;4.35;;;;;;;12.19;59.37;100612.47;5093588;28;20052;-59
2022/04/15 01:15:54;;;;;;;6.65;4.15;;;;;;;12.21;59.10;100610.56;5093372;28;20048;-59
2022/04/15 01:18:21;;;;;;;6.47;4.70;;;;;;;12.19;58.84;100615.09;5092014;28;20052;-60
2022/04/15 01:20:50;;;;;;;12.95;4.30;;;;;;;12.17;58.92;100620.44;5092849;28;20048;-59
2022/04/15 01:23:17;;;;;;;7.50;4.72;;;;;;;12.15;58.79;100618.81;5093073;28;20475;-60
2022/04/15 01:25:43;;;;;;;6.35;4.32;;;;;;;12.11;58.64;100626.00;5093040;28;20052;-61
2022/04/15 01:28:10;;;;;;;7.53;4.28;;;;;;;12.07;58.52;100616.56;5092984;28;20048;-61
2022/04/15 01:30:37;;;;;;;5.75;3.90;;;;;;;12.02;58.27;100627.31;5092601;28;20048;-59
2022/04/15 01:33:03;;;;;;;6.03;4.15;;;;;;;11.95;58.16;100616.19;5093090;28;20476;-59
2022/04/15 01:35:33;;;;;;;10.57;3.72;;;;;;;11.91;57.94;100619.03;5092950;28;20146;-59
2022/04/15 01:38:02;;;;;;;6.63;4.03;;;;;;;11.83;57.85;100612.38;5091737;28;20093;-61
2022/04/15 01:40:29;;;;;;;6.85;3.70;;;;;;;11.76;57.89;100608.31;5092662;28;20136;-61
2022/04/15 01:42:56;;;;;;;5.57;3.78;;;;;;;11.69;57.98;100618.31;5093117;28;20048;-59
2022/04/15 01:45:22;;;;;;;7.97;3.92;;;;;;;11.64;57.84;100619.44;5091599;28;20090;-61
2022/04/15 01:47:50;;;;;;;10.45;3.88;;;;;;;11.57;57.88;100619.75;5092854;28;20044;-60
2022/04/15 01:50:17;;;;;;;6.18;3.67;;;;;;;11.52;58.04;100631.44;5092586;28;20101;-59
2022/04/15 01:52:44;;;;;;;6.65;3.95;;;;;;;11.45;57.92;100630.88;5091747;28;20055;-59
2022/04/15 01:55:10;;;;;;;5.78;4.40;;;;;;;11.39;58.01;100639.06;5092333;28;20496;-63
2022/04/15 01:57:37;;;;;;;8.88;3.97;;;;;;;11.32;57.97;100633.22;5091433;28;20137;-61
2022/04/15 02:00:04;;;;;;;5.68;4.10;;;;;;;11.25;57.94;100635.28;5092373;28;20051;-59
2022/04/15 02:02:30;;;;;;;5.75;3.92;;;;;;;11.19;57.92;100638.19;5092448;28;20113;-62
2022/04/15 02:04:58;;;;;;;4.47;3.65;;;;;;;11.12;57.87;100634.13;5092712;28;20052;-59
2022/04/15 02:07:25;;;;;;;10.52;4.25;;;;;;;11.05;58.01;100637.06;5091438;28;20052;-60
2022/04/15 02:09:51;;;;;;;5.32;3.83;;;;;;;10.98;57.96;100638.25;5092200;28;20097;-59
2022/04/15 02:12:18;;;;;;;7.00;4.65;;;;;;;10.92;58.22;100635.88;5092285;28;20048;-60
2022/04/15 02:14:46;;;;;;;6.82;4.35;;;;;;;10.86;58.44;100639.66;5092074;28;20109;-60
2022/04/15 02:17:13;;;;;;;6.20;4.10;;;;;;;10.80;58.64;100638.13;5092348;28;20056;-59
2022/04/15 02:19:39;;;;;;;6.40;4.47;;;;;;;10.76;58.53;100647.09;5090918;28;20055;-60
2022/04/15 02:22:06;;;;;;;9.93;4.38;;;;;;;10.71;58.56;100638.53;5092325;28;20093;-59
2022/04/15 02:24:32;;;;;;;6.78;4.50;;;;;;;10.67;58.58;100642.22;5092060;28;20048;-59
2022/04/15 02:26:59;;;;;;;9.75;4.43;;;;;;;10.61;58.67;100650.41;5092113;28;20055;-62
2022/04/15 02:29:26;;;;;;;6.78;4.05;;;;;;;10.55;58.72;100649.72;5091661;28;20044;-61
2022/04/15 02:31:53;;;;;;;9.45;4.10;;;;;;;10.51;58.93;100652.56;5092032;28;20476;-59
2022/04/15 02:34:19;;;;;;;6.63;4.40;;;;;;;10.46;59.46;100655.38;5092301;28;20056;-62
2022/04/15 02:36:46;;;;;;;5.72;4.47;;;;;;;10.43;59.45;100658.09;5091927;28;20093;-59
2022/04/15 02:39:12;;;;;;;6.55;4.25;;;;;;;10.42;59.76;100653.75;5090590;28;20056;-60
2022/04/15 02:41:40;;;;;;;7.10;4.75;;;;;;;10.42;59.92;100656.38;5091773;28;20052;-60
2022/04/15 02:44:07;;;;;;;6.45;4.65;;;;;;;10.42;60.25;100657.25;5090732;28;20048;-59
2022/04/15 02:46:35;;;;;;;7.18;4.32;;;;;;;10.45;60.49;100658.06;5090676;28;20052;-62
2022/04/15 02:49:03;;;;;;;6.78;4.22;;;;;;;10.46;60.61;100660.63;5091887;28;20050;-61
2022/04/15 02:51:30;;;;;;;6.82;4.32;;;;;;;10.51;60.77;100660.47;5090289;28;20048;-62
2022/04/15 02:53:57;;;;;;;6.82;4.28;;;;;;;10.55;60.73;100662.03;5090120;28;20055;-59
2022/04/15 02:56:24;;;;;;;5.00;3.97;;;;;;;10.60;60.81;100656.56;5091453;28;20048;-60
2022/04/15 02:58:50;;;;;;;5.72;4.28;;;;;;;10.63;60.73;100662.56;5091472;28;20055;-60
2022/04/15 03:01:17;;;;;;;7.47;4.20;;;;;;;10.66;60.73;100658.94;5091316;28;20101;-59
2022/04/15 03:03:43;;;;;;;6.05;4.30;;;;;;;10.69;60.75;100662.28;5091465;28;20156;-62
2022/04/15 03:06:10;;;;;;;8.35;4.45;;;;;;;10.72;60.68;100663.09;5090669;28;20101;-61
2022/04/15 03:08:36;;;;;;;8.65;3.97;;;;;;;10.74;60.57;100662.13;5091070;28;20052;-59
2022/04/15 03:11:03;;;;;;;7.05;4.32;;;;;;;10.78;60.60;100662.81;5090855;28;20089;-59
2022/04/15 03:13:30;;;;;;;8.27;4.68;;;;;;;10.81;60.63;100655.63;5090968;28;20052;-59
2022/04/15 03:16:02;;;;;;;7.70;4.72;;;;;;;10.86;60.50;100659.84;5090947;28;20124;-60
2022/04/15 03:18:29;;;;;;;8.23;4.97;;;;;;;10.88;60.35;100658.03;5090933;28;20400;-59
2022/04/15 03:20:55;;;;;;;6.05;4.47;;;;;;;10.91;60.45;100649.97;5090665;28;20063;-59
2022/04/15 03:23:22;;;;;;;7.78;5.28;;;;;;;10.93;60.35;100653.41;5090857;28;20393;-60
2022/04/15 03:25:48;;;;;;;5.03;4.10;;;;;;;10.95;60.46;100657.66;5090669;28;20082;-61
2022/04/15 03:28:15;;;;;;;6.30;4.78;;;;;;;10.97;60.46;100660.25;5090939;28;20543;-60
2022/04/15 03:30:42;;;;;;;8.98;4.63;;;;;;;11.00;60.25;100653.97;5090681;28;20101;-59
2022/04/15 03:33:09;;;;;;;7.93;4.57;;;;;;;11.02;60.37;100662.66;5090876;28;20055;-61
2022/04/15 03:35:36;;;;;;;8.70;4.80;;;;;;;11.04;60.39;100659.06;5090780;28;20447;-60
2022/04/15 03:38:02;;;;;;;8.25;4.45;;;;;;;11.06;60.26;100658.97;5090848;28;20052;-59
2022/04/15 03:40:29;;;;;;;8.13;5.30;;;;;;;11.07;60.30;100656.25;5090322;28;20047;-60
2022/04/15 03:42:56;;;;;;;8.57;5.05;;;;;;;11.08;60.09;100655.38;5090667;28;20048;-59
2022/04/15 03:45:23;;;;;;;7.95;4.88;;;;;;;11.09;60.19;100664.09;5090598;28;20075;-58
2022/04/15 03:47:51;;;;;;;9.38;4.78;;;;;;;11.08;60.18;100658.00;5090477;28;20051;-60
2022/04/15 03:50:18;;;;;;;8.18;5.10;;;;;;;11.11;60.19;100664.91;5088778;28;20056;-59
2022/04/15 03:52:46;;;;;;;9.82;5.50;;;;;;;11.12;60.21;100660.47;5090286;28;20549;-59
2022/04/15 03:55:15;;;;;;;9.30;5.10;;;;;;;11.12;60.32;100668.38;5089342;28;20051;-59
2022/04/15 03:57:42;;;;;;;5.82;4.97;;;;;;;11.14;60.62;100674.47;5090447;28;20097;-61
2022/04/15 04:00:11;;;;;;;10.90;5.00;;;;;;;11.15;60.44;100678.78;5090400;28;20117;-59
2022/04/15 04:02:38;;;;;;;7.35;5.60;;;;;;;11.16;60.40;100677.88;5090714;28;20070;-59
2022/04/15 04:05:07;;;;;;;6.93;5.70;;;;;;;11.17;60.38;100679.56;5090585;28;20074;-59
2022/04/15 04:07:33;;;;;;;9.73;5.60;;;;;;;11.18;60.34;100679.50;5089155;28;20052;-62
2022/04/15 04:10:00;;;;;;;11.40;5.80;;;;;;;11.19;60.25;100683.88;5090185;28;20044;-60
2022/04/15 04:12:31;;;;;;;7.75;5.68;;;;;;;11.20;60.74;100682.06;5090343;28;20048;-59
2022/04/15 04:14:58;;;;;;;8.60;5.90;;;;;;;11.24;60.38;100686.28;5088955;28;20113;-60
2022/04/15 04:17:24;;;;;;;12.18;6.40;;;;;;;11.26;60.48;100680.94;5092618;28;20044;-59
2022/04/15 04:19:51;;;;;;;6.75;5.38;;;;;;;11.27;60.46;100686.16;5094218;28;20064;-60
2022/04/15 04:22:18;;;;;;;9.25;6.55;;;;;;;11.28;60.57;100687.84;5094438;28;20051;-61
2022/04/15 04:24:44;;;;;;;8.75;7.15;;;;;;;11.31;60.45;100694.75;5094553;28;20101;-60
2022/04/15 04:27:11;;;;;;;11.02;6.70;;;;;;;11.31;60.55;100695.63;5094233;28;20093;-59
2022/04/15 04:29:37;;;;;;;7.82;6.55;;;;;;;11.33;60.64;100695.56;5094044;28;20044;-59
2022/04/15 04:32:04;;;;;;;9.27;6.47;;;;;;;11.33;60.62;100698.22;5094041;28;20492;-61
2022/04/15 04:34:31;;;;;;;9.43;6.70;;;;;;;11.33;60.66;100708.75;5094113;28;20067;-60
2022/04/15 04:36:57;;;;;;;8.88;6.45;;;;;;;11.32;60.44;100707.88;5094301;28;20074;-60
2022/04/15 04:39:26;;;;;;;12.60;6.82;;;;;;;11.32;60.42;100707.00;5093958;28;20105;-59
2022/04/15 04:41:52;;;;;;;11.20;6.45;;;;;;;11.30;60.60;100712.38;5092589;28;20044;-60
2022/04/15 04:44:19;;;;;;;10.18;6.75;;;;;;;11.29;60.76;100705.38;5093737;28;20450;-59
2022/04/15 04:46:46;;;;;;;10.88;7.20;;;;;;;11.28;60.94;100716.84;5093836;28;20063;-59
2022/04/15 04:49:12;;;;;;;11.75;7.22;;;;;;;11.29;60.90;100715.09;5093484;28;20056;-61
2022/04/15 04:51:39;;;;;;;8.20;5.55;;;;;;;11.29;60.91;100715.91;5093933;28;20123;-59
2022/04/15 04:54:06;;;;;;;10.27;7.20;;;;;;;11.30;60.94;100725.56;5093635;28;20484;-60
2022/04/15 04:56:32;;;;;;;7.57;6.40;;;;;;;11.29;61.06;100730.91;5093698;28;20056;-60
2022/04/15 04:58:59;;;;;;;9.20;7.05;;;;;;;11.29;61.10;100723.81;5092367;28;20561;-60
2022/04/15 05:01:25;;;;;;;13.35;6.53;;;;;;;11.31;61.23;100731.66;5092196;28;20048;-59
2022/04/15 05:03:52;;;;;;;8.75;6.65;;;;;;;11.32;61.44;100736.00;5092385;28;20496;-59
2022/04/15 05:06:18;;;;;;;9.27;7.07;;;;;;;11.31;61.29;100735.19;5092245;28;20080;-61
2022/04/15 05:08:45;;;;;;;10.75;6.78;;;;;;;11.34;61.28;100742.91;5093592;28;20051;-60
2022/04/15 05:11:11;;;;;;;9.65;6.93;;;;;;;11.34;61.39;100742.91;5093280;28;20048;-60
2022/04/15 05:13:38;;;;;;;12.57;6.43;;;;;;;11.35;61.39;100746.44;5093396;28;20565;-60
2022/04/15 05:16:05;;;;;;;11.05;7.15;;;;;;;11.36;61.29;100756.03;5093325;28;20142;-62
2022/04/15 05:18:32;;;;;;;11.43;7.38;;;;;;;11.37;61.40;100756.91;5093210;28;20139;-60
2022/04/15 05:20:58;;;;;;;11.63;6.90;;;;;;;11.37;61.49;100756.91;5093113;28;20130;-59
2022/04/15 05:23:25;;;;;;;11.05;7.55;;;;;;;11.39;61.60;100755.03;5093269;28;20069;-59
2022/04/15 05:25:51;;;;;;;11.00;6.82;;;;;;;11.40;61.62;100762.88;5093155;28;20048;-61
2022/04/15 05:28:18;;;;;;;11.95;7.82;;;;;;;11.41;61.59;100764.63;5092496;28;20122;-59
2022/04/15 05:30:44;;;;;;;8.60;7.20;;;;;;;11.44;61.64;100771.53;5092977;28;20404;-60
2022/04/15 05:33:11;;;;;;;8.77;7.10;;;;;;;11.44;61.61;100780.28;5093092;28;20060;-61
2022/04/15 05:35:38;;;;;;;10.93;7.05;;;;;;;11.46;61.61;100773.19;5093006;28;20052;-61
2022/04/15 05:38:07;;;;;;;11.18;7.40;;;;;;;11.47;61.59;100776.66;5091629;28;20473;-60
2022/04/15 05:40:35;;;;;;;10.90;6.60;;;;;;;11.47;61.88;100781.94;5092934;28;20466;-62
2022/04/15 05:43:01;;;;;;;14.48;7.50;;;;;;;11.49;61.74;100784.50;5092804;28;20051;-62
2022/04/15 05:45:28;;;;;;;9.82;6.75;;;;;;;11.49;61.83;100782.72;5092724;28;20139;-60
2022/04/15 05:47:57;;;;;;;9.65;7.13;;;;;;;11.51;61.77;100780.88;5092866;28;20044;-59
2022/04/15 05:50:25;;;;;;;7.95;6.68;;;;;;;11.52;61.77;100782.59;5092536;28;20044;-61
2022/04/15 05:52:51;;;;;;;10.65;6.55;;;;;;;11.55;61.87;100792.16;5091368;28;20052;-63
2022/04/15 05:55:18;;;;;;;8.30;6.85;;;;;;;11.56;61.95;100799.13;5092720;28;20048;-60
2022/04/15 05:57:45;;;;;;;8.20;6.13;;;;;;;11.57;61.87;100790.28;5092681;28;20097;-61
2022/04/15 06:00:12;;;;;;;9.73;7.13;;;;;;;11.58;61.90;100795.50;5092559;28;20059;-62
2022/04/15 06:02:38;;;;;;;9.18;6.95;;;;;;;11.60;61.66;100803.34;5092377;28;20056;-61
2022/04/15 06:05:06;;;;;;;10.30;6.28;;;;;;;11.61;61.77;100805.06;5092511;28;20048;-60
2022/04/15 06:07:33;;;;;;;10.25;6.35;;;;;;;11.62;61.70;100806.75;5092593;28;20497;-61
2022/04/15 06:10:00;;;;;;;7.28;5.90;;;;;;;11.63;61.76;100810.25;5091925;28;20048;-61
2022/04/15 06:13:06;;;;;;;8.73;5.90;;;;;;;11.59;62.17;100815.66;5092013;28;20048;-61
2022/04/15 06:15:34;;;;;;;7.90;5.53;;;;;;;11.66;61.65;100818.06;5091941;28;20083;-61
2022/04/15 06:18:01;;;;;;;6.30;5.60;;;;;;;11.66;61.75;100816.25;5092136;28;20052;-61
2022/04/15 06:20:30;;;;;;;9.40;6.00;;;;;;;11.68;61.83;100829.38;5091951;28;20051;-63
2022/04/15 06:22:57;;;;;;;9.18;5.65;;;;;;;11.68;62.08;100826.72;5091456;28;20089;-63
2022/04/15 06:25:24;;;;;;;9.32;6.13;;;;;;;11.70;61.87;100827.53;5091685;28;20430;-60
2022/04/15 06:27:51;;;;;;;7.75;5.50;;;;;;;11.71;61.75;100829.25;5092189;28;20060;-63
2022/04/15 06:30:21;;;;;;;8.70;5.82;;;;;;;11.72;61.65;100831.81;5090718;28;20067;-61
2022/04/15 06:32:48;;;;;;;8.20;5.30;;;;;;;11.73;61.59;100833.53;5090616;28;20052;-63
2022/04/15 06:35:15;;;;;;;7.75;5.53;;;;;;;11.73;61.76;100833.53;5092196;28;20411;-62
2022/04/15 06:37:41;;;;;;;7.35;5.50;;;;;;;11.75;62.01;100836.09;5091777;28;20044;-60
2022/04/15 06:40:09;;;;;;;7.63;5.70;;;;;;;11.77;61.88;100850.06;5090966;28;20052;-62
2022/04/15 06:42:35;;;;;;;7.10;5.47;;;;;;;11.80;61.79;100846.44;5091732;28;20454;-61
2022/04/15 06:45:02;;;;;;;9.40;5.80;;;;;;;11.81;61.83;100850.81;5091672;28;20059;-63
2022/04/15 06:47:29;;;;;;;8.52;5.47;;;;;;;11.82;61.81;100855.97;5090223;28;20063;-61
2022/04/15 06:49:56;;;;;;;9.25;5.57;;;;;;;11.84;61.72;100856.78;5091283;28;20044;-60
2022/04/15 06:52:23;;;;;;;6.63;5.50;;;;;;;11.85;61.72;100863.78;5091533;28;20496;-60
2022/04/15 06:54:50;;;;;;;9.30;5.75;;;;;;;11.85;61.62;100863.78;5092029;28;20469;-60
2022/04/15 06:57:16;;;;;;;8.98;5.90;;;;;;;11.84;61.61;100862.06;5091660;28;20056;-60
2022/04/15 06:59:43;;;;;;;8.73;6.13;;;;;;;11.83;61.69;100870.91;5091351;28;20043;-60
2022/04/15 07:02:09;;;;;;;8.75;6.50;;;;;;;11.83;61.88;100864.75;5091553;28;20056;-63
2022/04/15 07:04:36;;;;;;;9.18;6.18;;;;;;;11.83;61.92;100865.63;5091466;28;20136;-60
2022/04/15 07:07:03;;;;;;;9.73;6.10;;;;;;;11.85;62.11;100868.22;5091762;28;20097;-62
2022/04/15 07:09:29;;;;;;;7.38;5.72;;;;;;;11.86;62.06;100870.75;5091049;28;20591;-61
2022/04/15 07:11:56;;;;;;;9.35;6.63;;;;;;;11.90;62.28;100875.91;5091076;28;20508;-60
2022/04/15 07:14:23;;;;;;;9.52;6.70;;;;;;;11.94;62.04;100877.47;5091133;28;20047;-61
2022/04/15 07:16:50;;;;;;;7.47;5.63;;;;;;;11.95;61.91;100884.47;5089668;28;20052;-61
2022/04/15 07:19:17;;;;;;;7.68;5.93;;;;;;;11.96;61.80;100886.19;5090613;28;20052;-60
2022/04/15 07:21:44;;;;;;;7.28;6.28;;;;;;;11.97;61.76;100887.91;5090853;28;20565;-63
2022/04/15 07:24:11;;;;;;;7.40;5.55;;;;;;;11.98;61.86;100897.53;5090968;28;20052;-60
2022/04/15 07:26:38;;;;;;;7.72;5.07;;;;;;;11.99;61.70;100896.59;5089770;28;20409;-62
2022/04/15 07:29:04;;;;;;;7.65;5.68;;;;;;;12.00;61.40;100898.31;5089703;28;20078;-60
2022/04/15 07:31:32;;;;;;;7.63;5.85;;;;;;;12.01;61.65;100894.75;5090391;28;20089;-60
2022/04/15 07:34:00;;;;;;;8.10;5.53;;;;;;;12.01;61.43;100902.69;5090700;28;20467;-60
2022/04/15 07:39:03;;;;;;;7.00;4.68;;;;;;;12.04;61.31;100896.41;5091024;28;20431;-60
2022/04/15 07:41:30;;;;;;;6.30;4.65;;;;;;;12.04;61.23;100907.78;5089270;28;20455;-62
2022/04/15 07:43:57;;;;;;;6.88;4.60;;;;;;;12.07;61.36;100912.13;5090623;28;20056;-62
2022/04/15 07:46:23;;;;;;;7.07;4.68;;;;;;;12.08;61.29;100901.50;5090445;28;20097;-61
2022/04/15 07:48:50;;;;;;;5.40;4.70;;;;;;;12.12;61.42;100910.16;5090814;28;20139;-61
2022/04/15 07:51:16;;;;;;;9.63;5.20;;;;;;;12.14;61.36;100912.72;5090115;28;20048;-61
2022/04/15 07:53:43;;;;;;;7.90;4.50;;;;;;;12.17;61.22;100909.91;5090797;28;20195;-61
2022/04/15 07:56:09;;;;;;;5.25;4.13;;;;;;;12.19;60.93;100913.38;5090720;28;20055;-61
2022/04/15 07:58:36;;;;;;;5.63;4.28;;;;;;;12.21;61.02;100917.63;5090505;28;20093;-61
2022/04/15 08:01:02;;;;;;;4.72;4.20;;;;;;;12.23;61.06;100920.22;5090734;28;20132;-63
2022/04/15 08:03:29;;;;;;;6.65;4.88;;;;;;;12.25;60.80;100918.34;5090545;28;20047;-60
2022/04/15 08:05:59;;;;;;;7.03;5.03;;;;;;;12.27;60.68;100926.22;5090490;28;20412;-63
2022/04/15 08:08:26;;;;;;;7.35;4.93;;;;;;;12.27;60.92;100929.72;5090383;28;20044;-60
2022/04/15 08:10:52;;;;;;;6.53;4.72;;;;;;;12.28;60.79;100926.13;5090086;28;20048;-61
2022/04/15 08:13:19;;;;;;;5.97;4.60;;;;;;;12.29;60.63;100924.38;5090195;28;20117;-62
2022/04/15 08:15:50;;;;;;;6.70;4.63;;;;;;;12.29;60.61;100941.03;5088961;28;20492;-60
2022/04/15 08:18:16;;;;;;;5.72;5.10;;;;;;;12.30;60.63;100931.34;5090452;28;20052;-61
2022/04/15 08:20:43;;;;;;;5.97;4.68;;;;;;;12.29;60.80;100930.50;5090095;28;20117;-61
2022/04/15 08:23:10;;;;;;;6.82;4.43;;;;;;;12.29;60.52;100937.56;5090243;28;20052;-61
2022/04/15 08:25:39;;;;;;;6.55;4.80;;;;;;;12.31;60.17;100946.25;5090111;28;20044;-60
2022/04/15 08:28:06;;;;;;;5.22;4.72;;;;;;;12.28;59.94;100944.63;5088830;28;20060;-61
2022/04/15 08:30:33;;;;;;;6.47;4.88;;;;;;;12.27;60.14;100940.28;5089994;28;20052;-61
2022/04/15 08:33:02;;;;;;;5.65;4.50;;;;;;;12.26;60.36;100941.19;5090212;28;20496;-61
2022/04/15 08:35:29;;;;;;;7.75;4.85;;;;;;;12.25;60.22;100935.06;5089902;28;20044;-60
2022/04/15 08:37:55;;;;;;;6.28;4.88;;;;;;;12.25;60.44;100945.63;5090016;28;20098;-61
2022/04/15 08:40:22;;;;;;;7.15;5.13;;;;;;;12.25;60.32;100945.63;5089995;28;20086;-59
2022/04/15 08:42:49;;;;;;;5.70;4.40;;;;;;;12.28;60.44;100949.03;5089968;28;20056;-62
2022/04/15 08:45:21;;;;;;;5.97;4.57;;;;;;;12.28;60.37;100952.53;5088651;28;20055;-60
2022/04/15 08:47:48;;;;;;;4.68;4.07;;;;;;;12.32;60.32;100956.75;5088772;28;20052;-63
2022/04/15 08:50:15;;;;;;;6.70;4.65;;;;;;;12.35;60.24;100955.75;5088495;28;20393;-60
2022/04/15 08:52:42;;;;;;;5.43;4.13;;;;;;;12.36;60.08;100953.06;5089980;28;20485;-63
2022/04/15 08:55:08;;;;;;;5.95;4.22;;;;;;;12.36;59.88;100955.69;5089899;28;20052;-62
2022/04/15 08:57:35;;;;;;;6.28;4.22;;;;;;;12.38;59.75;100960.91;5090043;28;20098;-61
2022/04/15 09:00:01;;;;;;;6.00;3.85;;;;;;;12.35;59.82;100967.19;5089608;28;20117;-61
2022/04/15 09:02:37;;;;;;;5.20;3.58;;;;;;;12.34;60.13;100960.16;5090071;28;20051;-60
2022/04/15 09:05:10;;;;;;;5.32;3.65;;;;;;;12.36;59.97;100968.03;5093072;28;20056;-61
2022/04/15 09:07:37;;;;;;;4.05;3.10;;;;;;;12.37;60.29;100970.59;5092660;28;20059;-62
2022/04/15 09:10:06;;;;;;;4.80;2.92;;;;;;;12.40;60.29;100977.53;5092259;28;20048;-59
2022/04/15 09:12:35;;;;;;;3.85;2.60;;;;;;;12.45;60.25;100979.97;5092300;28;20048;-60
2022/04/15 09:15:06;;;;;;;4.00;3.10;;;;;;;12.48;60.05;100980.69;5092264;28;20078;-60
2022/04/15 09:17:47;;;;;;;4.28;3.42;;;;;;;12.54;60.01;100986.59;5093338;28;20056;-60
2022/04/15 09:20:14;;;;;;;;;;;;;;;12.56;59.67;100982.13;5093663;28;20101;-60
2022/04/15 09:22:40;;;;;;;2.92;2.53;;;;;;;12.64;59.96;100980.00;5093301;28;20470;-62
2022/04/15 09:25:10;;;;;;;4.38;3.50;;;;;;;12.64;59.80;100990.56;5093333;28;20121;-60
2022/04/15 09:27:37;;;;;;;3.15;2.85;;;;;;;12.67;60.03;100995.69;5092189;28;20064;-63
2022/04/15 09:30:05;;;;;;;3.78;3.13;;;;;;;12.70;59.96;100992.91;5092876;28;20056;-61
2022/04/15 09:32:31;;;;;;;7.15;3.72;;;;;;;12.75;60.13;100990.06;5092887;28;20107;-60
2022/04/15 09:35:09;;;;;;;6.47;4.07;;;;;;;12.79;59.85;100994.28;5093255;28;20106;-61
2022/04/15 09:37:40;;;;;;;6.60;5.53;;;;;;;12.83;59.88;100992.34;5093210;28;20047;-61
2022/04/15 09:40:09;;;;;;;7.53;5.07;;;;;;;12.84;59.33;100994.91;5091528;28;20476;-61
2022/04/15 09:42:36;;;;;;;8.73;5.38;;;;;;;12.85;59.71;100993.97;5091543;28;20048;-60
2022/04/15 09:45:23;;;;;;;6.55;5.38;;;;;;;12.82;59.85;100994.13;5091645;28;20125;-60
2022/04/15 09:47:52;;;;;;;10.60;4.70;;;;;;;12.87;60.10;100993.91;5093157;28;20048;-60
2022/04/15 09:50:37;;;;;;;5.95;4.90;;;;;;;12.87;60.05;101000.03;5091568;28;20185;-62
2022/04/15 09:53:18;;;;;;;6.03;4.40;;;;;;;12.90;59.61;100997.25;5091613;28;20055;-60
2022/04/15 09:55:50;;;;;;;8.70;5.90;;;;;;;12.95;59.66;100996.19;5092624;28;20095;-60
2022/04/15 09:58:23;;;;;;;10.18;4.88;;;;;;;12.97;59.46;101005.75;5092156;28;20079;-62
2022/04/15 10:00:53;;;;;;;6.03;4.18;;;;;;;13.01;59.46;101001.19;5091229;28;20048;-60
2022/04/15 10:03:27;;;;;;;7.05;4.50;;;;;;;13.02;59.08;101002.91;5092542;28;20124;-61
2022/04/15 10:05:56;;;;;;;7.07;4.18;;;;;;;13.08;59.53;101004.41;5092314;28;20056;-60
2022/04/15 10:08:25;;;;;;;6.95;4.82;;;;;;;13.11;59.35;100996.31;5091411;28;20055;-63
2022/04/15 10:10:53;;;;;;;5.55;4.43;;;;;;;13.15;59.25;101006.69;5092344;28;20051;-60
2022/04/15 10:13:22;;;;;;;4.90;3.83;;;;;;;13.21;59.17;101007.31;5091337;28;20059;-61
2022/04/15 10:15:49;;;;;;;7.95;4.05;;;;;;;13.23;59.24;101013.41;5092239;28;20048;-60
2022/04/15 10:18:18;;;;;;;6.68;3.88;;;;;;;13.24;59.04;101012.47;5092360;28;20127;-60
2022/04/15 10:20:45;;;;;;;3.88;3.28;;;;;;;13.28;58.87;101016.66;5091126;28;20062;-60
2022/04/15 10:23:13;;;;;;;4.22;3.45;;;;;;;13.28;58.73;101008.75;5092236;28;20059;-63
2022/04/15 10:25:46;;;;;;;5.10;3.78;;;;;;;13.28;58.68;101006.09;5091874;28;20105;-61
2022/04/15 10:28:16;;;;;;;4.32;3.42;;;;;;;13.29;58.58;101007.81;5091099;28;20084;-60
2022/04/15 10:30:52;;;;;;;5.78;3.35;;;;;;;13.28;58.71;101004.28;5090643;28;20055;-61
2022/04/15 10:33:29;;;;;;;5.30;3.58;;;;;;;13.28;58.92;101009.56;5091029;28;20501;-60
2022/04/15 10:36:10;;;;;;;4.60;3.38;;;;;;;13.28;58.97;101001.63;5090742;28;20052;-62
2022/04/15 10:38:57;;;;;;;5.32;3.10;;;;;;;13.33;59.07;100998.78;5091559;28;20048;-60
2022/04/15 10:41:24;;;;;;;4.20;3.08;;;;;;;13.35;59.04;101002.19;5091473;28;20051;-60
2022/04/15 10:43:57;;;;;;;3.92;3.20;;;;;;;13.36;58.97;101000.41;5092206;28;20420;-63
2022/04/15 10:46:36;;;;;;;5.10;3.40;;;;;;;13.41;59.44;101009.84;5090511;28;20451;-60
2022/04/15 10:49:23;;;;;;;4.15;3.20;;;;;;;13.46;58.95;101011.41;5090670;28;20515;-64
2022/04/15 10:51:54;;;;;;;4.05;3.17;;;;;;;13.56;59.23;101007.41;5091923;28;20048;-62
2022/04/15 10:54:42;;;;;;;4.32;3.20;;;;;;;13.60;59.13;101008.97;5090437;28;20492;-64
2022/04/15 10:57:10;;;;;;;4.00;3.05;;;;;;;13.74;59.09;101023.28;5090364;28;20048;-61
2022/04/15 11:02:36;;;;;;;4.90;3.15;;;;;;;13.83;58.12;101022.00;5091575;28;20462;-60
2022/04/15 11:05:03;;;;;;;4.97;3.42;;;;;;;13.88;58.42;101015.53;5091472;28;20451;-63
2022/04/15 11:08:03;;;;;;;3.17;2.80;;;;;;;13.89;57.87;101024.31;5090211;28;20416;-61
2022/04/15 11:10:46;;;;;;;5.10;3.20;;;;;;;13.94;57.93;101017.84;5090988;28;20063;-60
2022/04/15 11:13:32;;;;;;;;;;;;;;;14.01;58.32;101026.34;5091975;28;20075;-63
2022/04/15 11:16:10;;;;;;;3.80;2.97;;;;;;;14.08;57.92;101029.53;5091228;28;19974;-61
2022/04/15 11:18:43;;;;;;;4.18;3.20;;;;;;;14.11;57.44;101023.22;5089764;28;20515;-62
2022/04/15 11:21:24;;;;;;;4.82;3.58;;;;;;;14.12;57.26;101028.44;5089858;28;20466;-61
2022/04/15 11:23:52;;;;;;;3.70;3.03;;;;;;;14.17;57.65;101029.06;5091218;28;20496;-60
2022/04/15 11:26:21;;;;;;;5.85;3.30;;;;;;;14.20;57.81;101031.53;5090630;28;20048;-63
2022/04/15 11:28:52;;;;;;;4.13;3.38;;;;;;;14.20;56.79;101034.19;5090995;28;20113;-62
2022/04/15 11:31:30;;;;;;;3.97;3.13;;;;;;;14.23;57.08;101033.19;5089351;28;20512;-63
2022/04/15 11:34:03;;;;;;;4.30;3.28;;;;;;;14.27;57.08;101034.72;5090766;28;20606;-60
2022/04/15 11:36:42;;;;;;;5.85;3.83;;;;;;;14.31;57.15;101027.47;5091156;28;20047;-62